Time;durP1;ratioP1;P1;durP2;ratioP2;P2;SDS_P1;SDS_P2;PMS_P1;PMS_P2;Temp;Humidity;BMP_temperature;BMP_pressure;BME280_temperature;BME280_humidity;BME280_pressure;Samples;Min_cycle;Max_cycle;Signal;HPM_P1;HPM_P2
2022/04/02 00:01:56;;;;;;;0.40;0.20;;;1.10;99.90;;;;;;5008644;28;20393;-81
2022/04/02 00:04:21;;;;;;;0.40;0.30;;;1.60;99.90;;;;;;5010306;28;20389;-81
2022/04/02 00:06:47;;;;;;;0.40;0.30;;;1.30;99.90;;;;;;5008827;28;20955;-84
2022/04/02 00:09:13;;;;;;;0.40;0.20;;;1.20;99.90;;;;;;5011711;28;20388;-82
2022/04/02 00:11:38;;;;;;;0.40;0.20;;;1.20;99.90;;;;;;5028504;28;20391;-81
2022/04/02 00:14:04;;;;;;;0.40;0.20;;;1.20;99.90;;;;;;5027688;28;20489;-81
2022/04/02 00:16:30;;;;;;;0.40;0.20;;;1.20;99.90;;;;;;5028704;28;20395;-81
2022/04/02 00:18:55;;;;;;;0.85;0.43;;;1.30;99.90;;;;;;5029972;28;20387;-84
2022/04/02 00:21:21;;;;;;;0.40;0.20;;;1.30;99.90;;;;;;5028686;28;20403;-81
2022/04/02 00:23:47;;;;;;;0.40;0.30;;;1.30;99.90;;;;;;5030221;28;20832;-81
2022/04/02 00:26:19;;;;;;;0.40;0.20;;;1.00;99.90;;;;;;5029111;28;20474;-81
2022/04/02 00:28:48;;;;;;;0.40;0.30;;;1.40;99.90;;;;;;5031205;28;20452;-81
2022/04/02 00:31:14;;;;;;;0.40;0.20;;;1.40;99.90;;;;;;5033618;28;20453;-81
2022/04/02 00:33:41;;;;;;;0.40;0.20;;;1.40;99.90;;;;;;5034305;28;20883;-81
2022/04/02 00:36:07;;;;;;;0.57;0.57;;;1.40;99.90;;;;;;5032135;28;20871;-82
2022/04/02 00:38:34;;;;;;;0.80;0.70;;;1.40;99.90;;;;;;5032812;28;20387;-81
2022/04/02 00:41:00;;;;;;;0.40;0.20;;;1.30;99.90;;;;;;5034539;28;20397;-81
2022/04/02 00:43:38;;;;;;;1.45;0.95;;;1.30;99.90;;;;;;5032253;28;20398;-81
2022/04/02 00:46:06;;;;;;;0.80;0.80;;;1.30;99.90;;;;;;5032643;28;20908;-81
2022/04/02 00:48:32;;;;;;;0.60;0.60;;;1.10;99.90;;;;;;5032076;28;20900;-81
2022/04/02 00:51:00;;;;;;;0.60;0.60;;;1.40;99.90;;;;;;5032114;28;20426;-81
2022/04/02 00:53:36;;;;;;;0.50;0.50;;;1.30;99.90;;;;;;5033202;28;20423;-81
2022/04/02 00:56:03;;;;;;;0.43;0.28;;;1.30;99.90;;;;;;5032456;28;20439;-81
2022/04/02 00:58:29;;;;;;;0.40;0.20;;;1.40;99.90;;;;;;5033015;28;20712;-82
2022/04/02 01:00:55;;;;;;;1.30;1.30;;;1.40;99.90;;;;;;5033696;28;20379;-81
2022/04/02 01:03:21;;;;;;;0.70;0.70;;;1.60;99.90;;;;;;5031696;28;20725;-84
2022/04/02 01:05:48;;;;;;;0.40;0.20;;;1.60;99.90;;;;;;5033590;28;20444;-81
2022/04/02 01:08:13;;;;;;;0.50;0.50;;;1.50;99.90;;;;;;5032301;28;20761;-80
2022/04/02 01:10:39;;;;;;;0.40;0.20;;;1.50;99.90;;;;;;5017565;28;20409;-80
2022/04/02 01:13:09;;;;;;;0.40;0.20;;;1.50;99.90;;;;;;5013832;28;20475;-80
2022/04/02 01:15:37;;;;;;;0.40;0.30;;;1.50;99.90;;;;;;5010934;28;20473;-81
2022/04/02 01:18:03;;;;;;;0.70;0.70;;;1.50;99.90;;;;;;5013909;28;20392;-81
2022/04/02 01:20:31;;;;;;;0.40;0.30;;;1.50;99.90;;;;;;5010690;28;20936;-83
2022/04/02 01:22:59;;;;;;;0.40;0.25;;;1.40;99.90;;;;;;5012371;28;20411;-81
2022/04/02 01:25:25;;;;;;;0.40;0.30;;;1.50;99.90;;;;;;5012377;28;20391;-80
2022/04/02 01:27:51;;;;;;;0.40;0.30;;;1.50;99.90;;;;;;5011421;28;20428;-80
2022/04/02 01:30:16;;;;;;;0.40;0.20;;;1.40;99.90;;;;;;5013284;28;20475;-81
2022/04/02 01:32:43;;;;;;;0.40;0.30;;;1.50;99.90;;;;;;5012412;28;20389;-81
2022/04/02 01:35:10;;;;;;;0.40;0.40;;;1.30;99.90;;;;;;5013136;28;20401;-81
2022/04/02 01:37:37;;;;;;;0.40;0.20;;;1.40;99.90;;;;;;5012039;28;20419;-82
2022/04/02 01:40:05;;;;;;;0.40;0.20;;;1.60;99.90;;;;;;5012243;28;20424;-81
2022/04/02 01:42:31;;;;;;;0.40;0.20;;;1.50;99.90;;;;;;5011906;28;20523;-81
2022/04/02 01:44:56;;;;;;;0.40;0.20;;;1.50;99.90;;;;;;5012370;28;20415;-80
2022/04/02 01:47:22;;;;;;;0.40;0.20;;;1.40;99.90;;;;;;5011724;28;20398;-80
2022/04/02 01:49:48;;;;;;;0.40;0.30;;;1.60;99.90;;;;;;5012136;28;20474;-82
2022/04/02 01:52:16;;;;;;;0.90;0.90;;;1.60;99.90;;;;;;5013049;28;20423;-81
2022/04/02 01:54:43;;;;;;;0.77;0.45;;;1.60;99.90;;;;;;5012622;28;20750;-78
2022/04/02 01:57:09;;;;;;;0.40;0.30;;;1.50;99.90;;;;;;5010878;28;20389;-81
2022/04/02 01:59:35;;;;;;;0.40;0.20;;;1.30;99.90;;;;;;5011634;28;20409;-82
2022/04/02 02:02:01;;;;;;;0.40;0.20;;;1.30;99.90;;;;;;5012057;28;20380;-81
2022/04/02 02:04:27;;;;;;;0.43;0.43;;;1.30;99.90;;;;;;5012808;28;20456;-80
2022/04/02 02:06:53;;;;;;;0.40;0.40;;;1.60;99.90;;;;;;5012939;28;20385;-79
2022/04/02 02:09:19;;;;;;;0.50;0.50;;;1.50;99.90;;;;;;5014583;28;20407;-80
2022/04/02 02:11:45;;;;;;;0.40;0.40;;;1.50;99.90;;;;;;5032375;28;20731;-80
2022/04/02 02:14:10;;;;;;;0.80;0.80;;;1.40;99.90;;;;;;5032036;28;20387;-79
2022/04/02 02:16:36;;;;;;;2.10;2.00;;;1.50;99.90;;;;;;5031629;28;20863;-80
2022/04/02 02:19:02;;;;;;;0.40;0.20;;;1.30;99.90;;;;;;5031151;28;20423;-81
2022/04/02 02:21:27;;;;;;;0.40;0.20;;;1.30;99.90;;;;;;5030910;28;20831;-80
2022/04/02 02:23:53;;;;;;;0.40;0.20;;;1.40;99.90;;;;;;5032483;28;20390;-80
2022/04/02 02:26:19;;;;;;;0.40;0.20;;;1.40;99.90;;;;;;5029658;28;20387;-80
2022/04/02 02:28:45;;;;;;;0.40;0.20;;;1.50;99.90;;;;;;5032489;28;20870;-80
2022/04/02 02:31:11;;;;;;;0.40;0.40;;;1.50;99.90;;;;;;5031577;28;20415;-80
2022/04/02 02:36:20;;;;;;;0.40;0.20;;;1.40;99.90;;;;;;5031250;28;20457;-80
2022/04/02 02:38:46;;;;;;;0.40;0.30;;;1.50;99.90;;;;;;5031835;28;20379;-79
2022/04/02 02:41:12;;;;;;;1.00;1.00;;;1.50;99.90;;;;;;5030460;28;20399;-80
2022/04/02 02:43:39;;;;;;;0.40;0.20;;;1.30;99.90;;;;;;5031123;28;20759;-79
2022/04/02 02:46:05;;;;;;;0.40;0.20;;;1.40;99.90;;;;;;5030505;28;20793;-80
2022/04/02 02:48:31;;;;;;;0.50;0.40;;;1.30;99.90;;;;;;5029605;28;20427;-80
2022/04/02 02:50:57;;;;;;;0.40;0.20;;;1.30;99.90;;;;;;5031081;28;20957;-80
2022/04/02 02:53:22;;;;;;;0.90;0.70;;;1.30;99.90;;;;;;5013723;28;20399;-80
2022/04/02 02:55:49;;;;;;;0.50;0.50;;;1.40;99.90;;;;;;5029345;28;20399;-80
2022/04/02 02:58:14;;;;;;;0.40;0.20;;;1.40;99.90;;;;;;5031233;28;20586;-79
2022/04/02 03:00:43;;;;;;;0.40;0.20;;;1.30;99.90;;;;;;5029107;28;20857;-80
2022/04/02 03:03:09;;;;;;;0.40;0.20;;;1.40;99.90;;;;;;5031939;28;20731;-80
2022/04/02 03:05:35;;;;;;;0.40;0.20;;;1.30;99.90;;;;;;5031016;28;20395;-81
2022/04/02 03:08:02;;;;;;;0.70;0.60;;;1.40;99.90;;;;;;5029892;28;20478;-80
2022/04/02 03:10:28;;;;;;;0.40;0.22;;;1.30;99.90;;;;;;5018019;28;20517;-81
2022/04/02 03:12:56;;;;;;;0.40;0.20;;;1.30;99.90;;;;;;5009494;28;20396;-81
2022/04/02 03:15:22;;;;;;;0.40;0.20;;;1.30;99.90;;;;;;5011231;28;20399;-81
2022/04/02 03:17:49;;;;;;;0.50;0.50;;;1.20;99.90;;;;;;5009125;28;20397;-82
2022/04/02 03:20:17;;;;;;;0.40;0.20;;;1.20;99.90;;;;;;5011128;28;20856;-81
2022/04/02 03:22:45;;;;;;;0.40;0.30;;;1.20;99.90;;;;;;5009997;28;20389;-80
2022/04/02 03:25:15;;;;;;;0.40;0.20;;;1.20;99.90;;;;;;5010719;28;20388;-80
2022/04/02 03:27:43;;;;;;;0.40;0.30;;;1.20;99.90;;;;;;5010154;28;20396;-81
2022/04/02 03:30:10;;;;;;;0.40;0.40;;;1.20;99.90;;;;;;5009415;28;20424;-81
2022/04/02 03:32:37;;;;;;;0.40;0.20;;;1.10;99.90;;;;;;5011093;28;20396;-82
2022/04/02 03:35:04;;;;;;;0.40;0.30;;;1.10;99.90;;;;;;5009654;28;20408;-82
2022/04/02 03:37:32;;;;;;;0.40;0.20;;;1.20;99.90;;;;;;5009871;28;20397;-81
2022/04/02 03:39:59;;;;;;;0.77;0.60;;;1.30;99.90;;;;;;5011223;28;20398;-81
2022/04/02 03:42:25;;;;;;;1.20;1.00;;;1.30;99.90;;;;;;5010851;28;20480;-80
2022/04/02 03:44:51;;;;;;;0.40;0.30;;;1.40;99.90;;;;;;5010152;28;20404;-80
2022/04/02 03:47:22;;;;;;;0.40;0.20;;;1.20;99.90;;;;;;5010672;28;20456;-80
2022/04/02 03:49:48;;;;;;;0.40;0.20;;;1.40;99.90;;;;;;5011689;28;20557;-79
2022/04/02 03:52:15;;;;;;;0.40;0.20;;;1.50;99.90;;;;;;5009629;28;20416;-81
2022/04/02 03:54:41;;;;;;;0.40;0.30;;;1.30;99.90;;;;;;5011532;28;20396;-81
2022/04/02 03:57:12;;;;;;;0.40;0.30;;;1.30;99.90;;;;;;5011422;28;20387;-80
2022/04/02 03:59:39;;;;;;;1.90;1.00;;;1.30;99.90;;;;;;5011039;28;20500;-82
2022/04/02 04:02:05;;;;;;;0.40;0.20;;;1.20;99.90;;;;;;5009973;28;20400;-80
2022/04/02 04:04:34;;;;;;;0.40;0.20;;;1.30;99.90;;;;;;5008108;28;20517;-81
2022/04/02 04:07:00;;;;;;;0.40;0.20;;;1.20;99.90;;;;;;5009567;28;20471;-81
2022/04/02 04:09:26;;;;;;;0.40;0.30;;;1.20;99.90;;;;;;5013603;28;20392;-82
2022/04/02 04:11:54;;;;;;;0.40;0.20;;;1.30;99.90;;;;;;5030600;28;20469;-81
2022/04/02 04:14:20;;;;;;;0.40;0.20;;;1.10;99.90;;;;;;5029239;28;20410;-81
2022/04/02 04:16:47;;;;;;;0.90;0.90;;;1.30;99.90;;;;;;5030032;28;20456;-81
2022/04/02 04:19:13;;;;;;;0.40;0.20;;;1.40;99.90;;;;;;5030755;28;20426;-82
2022/04/02 04:21:39;;;;;;;0.40;0.20;;;1.40;99.90;;;;;;5028230;28;20537;-81
2022/04/02 04:24:06;;;;;;;0.40;0.40;;;1.40;99.90;;;;;;5029538;28;20490;-82
2022/04/02 04:26:32;;;;;;;0.40;0.20;;;1.30;99.90;;;;;;5030500;28;20773;-82
2022/04/02 04:28:58;;;;;;;0.40;0.20;;;1.20;99.90;;;;;;5029061;28;20395;-82
2022/04/02 04:31:24;;;;;;;0.40;0.20;;;1.20;99.90;;;;;;5030476;28;20418;-83
2022/04/02 04:33:50;;;;;;;0.80;0.60;;;1.10;99.90;;;;;;5030296;28;20418;-83
2022/04/02 04:36:18;;;;;;;0.40;0.20;;;1.20;99.90;;;;;;5030832;28;20384;-83
2022/04/02 04:38:45;;;;;;;0.40;0.20;;;1.10;99.90;;;;;;5028529;28;20404;-84
2022/04/02 04:41:11;;;;;;;0.40;0.40;;;1.10;99.90;;;;;;5030877;28;20393;-83
2022/04/02 04:43:37;;;;;;;0.70;0.70;;;1.00;99.90;;;;;;5030874;28;20859;-83
2022/04/02 04:46:04;;;;;;;0.40;0.30;;;1.00;99.90;;;;;;5029666;28;20787;-83
2022/04/02 04:48:29;;;;;;;0.40;0.20;;;1.00;99.90;;;;;;5030408;28;20478;-82
2022/04/02 04:50:56;;;;;;;0.40;0.30;;;0.80;99.90;;;;;;5028473;28;20514;-83
2022/04/02 04:53:22;;;;;;;0.40;0.20;;;1.00;99.90;;;;;;5030246;28;20907;-83
2022/04/02 04:55:48;;;;;;;0.40;0.30;;;1.00;99.90;;;;;;5029533;28;20402;-83
2022/04/02 04:58:14;;;;;;;0.40;0.20;;;1.00;99.90;;;;;;5028462;28;20407;-83
2022/04/02 05:00:43;;;;;;;0.40;0.20;;;1.10;99.90;;;;;;5030633;28;20391;-83
2022/04/02 05:03:09;;;;;;;0.40;0.23;;;1.10;99.90;;;;;;5028397;28;20391;-82
2022/04/02 05:05:35;;;;;;;0.50;0.50;;;1.00;99.90;;;;;;5029255;28;20449;-82
2022/04/02 05:08:01;;;;;;;0.40;0.20;;;1.00;99.90;;;;;;5029876;28;20457;-83
2022/04/02 05:10:28;;;;;;;0.40;0.20;;;0.90;99.90;;;;;;5016337;28;21227;-82
2022/04/02 05:12:54;;;;;;;0.40;0.20;;;1.10;99.90;;;;;;5009532;28;20475;-83
2022/04/02 05:15:20;;;;;;;0.90;0.70;;;1.10;99.90;;;;;;5010443;28;20413;-82
2022/04/02 05:17:46;;;;;;;0.40;0.20;;;0.90;99.90;;;;;;5014120;28;20412;-82
2022/04/02 05:20:14;;;;;;;0.40;0.20;;;1.10;99.90;;;;;;5012637;28;20459;-82
2022/04/02 05:22:44;;;;;;;0.40;0.20;;;1.10;99.90;;;;;;5013183;28;20400;-83
2022/04/02 05:25:14;;;;;;;0.40;0.40;;;1.10;99.90;;;;;;5014299;28;20416;-83
2022/04/02 05:27:41;;;;;;;0.40;0.20;;;1.10;99.90;;;;;;5023825;28;20397;-81
2022/04/02 05:30:07;;;;;;;0.40;0.20;;;1.00;99.90;;;;;;5016845;28;20471;-82
2022/04/02 05:32:33;;;;;;;0.40;0.20;;;1.20;99.90;;;;;;5011929;28;20396;-83
2022/04/02 05:34:59;;;;;;;0.40;0.20;;;1.10;99.90;;;;;;5012677;28;20389;-83
2022/04/02 05:37:25;;;;;;;1.90;0.80;;;1.20;99.90;;;;;;5012577;28;20873;-83
2022/04/02 05:39:52;;;;;;;0.40;0.20;;;1.10;99.90;;;;;;5013449;28;20389;-83
2022/04/02 05:42:18;;;;;;;0.40;0.20;;;1.20;99.90;;;;;;5013465;28;20389;-82
2022/04/02 05:44:43;;;;;;;0.40;0.20;;;1.20;99.90;;;;;;5011897;28;20913;-84
2022/04/02 05:47:09;;;;;;;0.40;0.30;;;1.20;99.90;;;;;;5025832;28;20847;-83
2022/04/02 05:49:36;;;;;;;0.40;0.20;;;1.20;99.90;;;;;;5027861;28;20442;-83
2022/04/02 05:52:03;;;;;;;0.40;0.30;;;1.10;99.90;;;;;;5024972;28;20743;-83
2022/04/02 05:54:29;;;;;;;0.40;0.20;;;1.20;99.90;;;;;;5021156;28;20711;-83
2022/04/02 05:56:55;;;;;;;0.40;0.20;;;1.10;99.90;;;;;;5022779;28;20389;-85
2022/04/02 05:59:21;;;;;;;0.70;0.70;;;1.20;99.90;;;;;;5020689;28;20393;-83
2022/04/02 06:01:48;;;;;;;0.40;0.20;;;1.00;99.90;;;;;;5020772;28;20437;-81
2022/04/02 06:04:14;;;;;;;0.40;0.20;;;1.10;99.90;;;;;;5016511;28;20467;-83
2022/04/02 06:06:40;;;;;;;0.50;0.50;;;1.20;99.90;;;;;;5025257;28;20395;-83
2022/04/02 06:09:06;;;;;;;0.40;0.20;;;1.90;99.90;;;;;;5026744;28;20512;-84
2022/04/02 06:11:32;;;;;;;0.40;0.20;;;1.10;99.90;;;;;;5029185;28;20558;-84
2022/04/02 06:13:58;;;;;;;0.40;0.20;;;1.10;99.90;;;;;;5023729;28;20533;-84
2022/04/02 06:16:25;;;;;;;0.40;0.28;;;1.20;99.90;;;;;;5029724;28;20395;-84
2022/04/02 06:18:52;;;;;;;0.40;0.20;;;1.10;99.90;;;;;;5019464;28;20480;-84
2022/04/02 06:21:18;;;;;;;0.40;0.30;;;1.10;99.90;;;;;;5011831;28;20428;-81
2022/04/02 06:23:44;;;;;;;0.40;0.20;;;1.20;99.90;;;;;;5013009;28;20389;-84
2022/04/02 06:26:10;;;;;;;0.40;0.20;;;1.30;99.90;;;;;;5018226;28;20406;-84
2022/04/02 06:28:40;;;;;;;1.10;1.00;;;1.20;99.90;;;;;;5018722;28;20465;-84
2022/04/02 06:31:08;;;;;;;0.40;0.20;;;1.20;99.90;;;;;;5016690;28;20420;-83
2022/04/02 06:33:33;;;;;;;0.50;0.50;;;1.20;99.90;;;;;;5017843;28;20466;-82
2022/04/02 06:36:02;;;;;;;0.40;0.30;;;1.20;99.90;;;;;;5026237;28;20475;-82
2022/04/02 06:38:28;;;;;;;0.40;0.20;;;1.20;99.90;;;;;;5030799;28;20386;-85
2022/04/02 06:40:53;;;;;;;2.20;1.00;;;1.30;99.90;;;;;;5031741;28;20418;-83
2022/04/02 06:43:19;;;;;;;0.40;0.20;;;1.10;99.90;;;;;;5031307;28;20384;-82
2022/04/02 06:45:45;;;;;;;0.40;0.20;;;1.20;99.90;;;;;;5020125;28;20424;-81
2022/04/02 06:48:11;;;;;;;0.40;0.20;;;1.30;99.90;;;;;;5021256;28;20434;-79
2022/04/02 06:50:37;;;;;;;0.40;0.20;;;1.50;99.90;;;;;;5026230;28;20414;-85
2022/04/02 06:53:03;;;;;;;0.40;0.20;;;1.60;99.90;;;;;;5023672;28;20414;-85
2022/04/02 06:55:30;;;;;;;0.40;0.40;;;1.50;99.90;;;;;;5023012;28;20397;-80
2022/04/02 06:58:00;;;;;;;0.50;0.50;;;1.70;99.90;;;;;;5024072;28;20450;-82
2022/04/02 07:00:26;;;;;;;0.57;0.57;;;1.70;99.90;;;;;;5026633;28;20432;-81
2022/04/02 07:02:52;;;;;;;0.40;0.20;;;1.60;99.90;;;;;;5024415;28;20917;-80
2022/04/02 07:05:18;;;;;;;0.40;0.20;;;1.60;99.90;;;;;;5017295;28;20400;-79
2022/04/02 07:07:45;;;;;;;0.40;0.20;;;1.60;99.90;;;;;;5024860;28;20391;-81
2022/04/02 07:10:11;;;;;;;0.40;0.20;;;1.60;99.90;;;;;;5025737;28;20415;-82
2022/04/02 07:12:37;;;;;;;0.40;0.20;;;1.50;99.90;;;;;;5026002;28;20417;-82
2022/04/02 07:15:04;;;;;;;0.40;0.20;;;1.50;99.90;;;;;;5022664;28;20379;-80
2022/04/02 07:17:30;;;;;;;0.40;0.20;;;1.40;99.90;;;;;;5021959;28;20970;-85
2022/04/02 07:19:57;;;;;;;0.80;0.60;;;1.60;99.90;;;;;;5019555;28;20442;-84
2022/04/02 07:22:25;;;;;;;0.40;0.20;;;1.50;99.90;;;;;;5022325;28;20413;-80
2022/04/02 07:24:52;;;;;;;0.40;0.20;;;1.70;99.90;;;;;;5025580;28;20393;-80
2022/04/02 07:27:22;;;;;;;0.40;0.40;;;1.60;99.90;;;;;;5022387;28;20820;-84
2022/04/02 07:29:51;;;;;;;0.40;0.20;;;1.30;99.90;;;;;;5024105;28;20426;-74
2022/04/02 07:32:17;;;;;;;0.40;0.20;;;1.60;99.90;;;;;;5017184;28;20387;-74
2022/04/02 07:34:43;;;;;;;0.40;0.20;;;1.50;99.90;;;;;;5018948;28;20393;-74
2022/04/02 07:37:44;;;;;;;0.80;0.80;;;1.50;99.90;;;;;;5018809;28;20409;-75
2022/04/02 07:40:20;;;;;;;0.40;0.20;;;1.60;99.90;;;;;;5020927;28;21073;-75
2022/04/02 07:43:25;;;;;;;0.40;0.20;;;1.60;99.90;;;;;;5022312;28;20462;-73
2022/04/02 07:46:14;;;;;;;0.40;0.20;;;1.50;99.90;;;;;;5020714;28;20402;-75
2022/04/02 07:48:41;;;;;;;0.50;0.50;;;1.40;99.90;;;;;;5013076;28;20444;-74
2022/04/02 07:51:11;;;;;;;0.60;0.60;;;1.30;99.90;;;;;;5024011;28;20670;-74
2022/04/02 07:53:48;;;;;;;0.40;0.30;;;1.50;99.90;;;;;;5020108;28;20424;-74
2022/04/02 07:56:30;;;;;;;0.40;0.20;;;1.60;99.90;;;;;;5017350;28;20408;-74
2022/04/02 07:59:01;;;;;;;0.40;0.20;;;1.40;99.90;;;;;;5020380;28;20414;-74
2022/04/02 08:01:27;;;;;;;0.40;0.20;;;1.40;99.90;;;;;;5017635;28;20444;-75
2022/04/02 08:03:54;;;;;;;0.40;0.20;;;1.40;99.90;;;;;;5021863;28;20393;-74
2022/04/02 08:06:21;;;;;;;0.40;0.20;;;1.50;99.90;;;;;;5025791;28;20414;-74
2022/04/02 08:08:47;;;;;;;0.40;0.20;;;1.30;99.90;;;;;;5019066;28;20760;-74
2022/04/02 08:11:15;;;;;;;0.40;0.30;;;1.30;99.90;;;;;;5019149;28;20580;-73
2022/04/02 08:13:43;;;;;;;0.40;0.20;;;1.20;99.90;;;;;;5018648;28;20923;-74
2022/04/02 08:16:09;;;;;;;0.40;0.20;;;1.40;99.90;;;;;;5017600;28;20746;-74
2022/04/02 08:18:39;;;;;;;0.40;0.20;;;1.60;99.90;;;;;;5019374;28;20877;-76
2022/04/02 08:21:06;;;;;;;0.40;0.20;;;1.50;99.90;;;;;;5017772;28;20964;-75
2022/04/02 08:23:32;;;;;;;0.40;0.30;;;1.70;99.90;;;;;;5017670;28;20397;-73
2022/04/02 08:26:07;;;;;;;0.40;0.20;;;1.90;99.90;;;;;;5015970;28;20475;-74
2022/04/02 08:29:09;;;;;;;0.40;0.20;;;1.70;99.90;;;;;;5015133;28;20432;-74
2022/04/02 08:31:54;;;;;;;0.40;0.40;;;1.70;99.90;;;;;;5016874;28;20522;-73
2022/04/02 08:34:32;;;;;;;0.40;0.20;;;1.50;99.90;;;;;;5016134;28;20411;-73
2022/04/02 08:37:13;;;;;;;0.40;0.20;;;1.60;99.90;;;;;;5014991;28;20447;-73
2022/04/02 08:39:53;;;;;;;0.40;0.40;;;1.60;99.90;;;;;;5016716;28;20407;-74
2022/04/02 08:42:56;;;;;;;0.40;0.20;;;1.70;99.90;;;;;;5019724;28;20423;-74
2022/04/02 08:45:33;;;;;;;0.40;0.20;;;1.80;99.90;;;;;;5015570;28;20462;-73
2022/04/02 08:48:23;;;;;;;0.40;0.20;;;1.50;99.90;;;;;;5019632;28;20436;-74
2022/04/02 08:50:55;;;;;;;0.40;0.20;;;1.50;99.90;;;;;;5021725;28;20437;-74
2022/04/02 08:53:43;;;;;;;0.40;0.20;;;1.60;99.90;;;;;;5017516;28;20387;-73
2022/04/02 08:56:10;;;;;;;0.40;0.20;;;1.70;99.90;;;;;;5021644;28;20431;-73
2022/04/02 08:58:58;;;;;;;0.40;0.20;;;1.70;99.90;;;;;;5019300;28;20897;-73
2022/04/02 09:01:36;;;;;;;0.40;0.25;;;1.70;99.90;;;;;;5020169;28;20481;-73
2022/04/02 09:04:37;;;;;;;0.40;0.20;;;1.90;99.90;;;;;;5021025;28;20461;-73
2022/04/02 09:07:05;;;;;;;0.40;0.20;;;2.10;99.90;;;;;;5020360;28;20757;-74
2022/04/02 09:10:04;;;;;;;0.40;0.20;;;2.10;99.90;;;;;;5019253;28;20499;-74
2022/04/02 09:12:56;;;;;;;0.40;0.20;;;2.00;99.90;;;;;;5019000;28;20484;-74
2022/04/02 09:15:28;;;;;;;0.40;0.20;;;1.80;99.90;;;;;;5019464;28;20407;-74
2022/04/02 09:18:02;;;;;;;0.40;0.30;;;1.70;99.90;;;;;;5019724;28;20411;-76
2022/04/02 09:20:52;;;;;;;0.40;0.20;;;1.80;99.90;;;;;;5026288;28;20446;-74
2022/04/02 09:23:39;;;;;;;0.40;0.20;;;1.70;99.90;;;;;;5027184;28;20833;-76
2022/04/02 09:26:30;;;;;;;0.40;0.20;;;1.70;99.90;;;;;;5022826;28;20791;-74
2022/04/02 09:29:06;;;;;;;0.40;0.20;;;1.70;99.90;;;;;;5021859;28;20410;-74
2022/04/02 09:31:51;;;;;;;0.40;0.20;;;1.90;99.90;;;;;;5026808;28;20454;-75
2022/04/02 09:34:54;;;;;;;0.40;0.20;;;1.90;99.90;;;;;;5022240;28;20485;-75
2022/04/02 09:37:23;;;;;;;0.40;0.30;;;2.00;99.90;;;;;;5025425;28;20474;-74
2022/04/02 09:40:06;;;;;;;0.40;0.20;;;1.90;99.90;;;;;;5017950;28;20405;-74
2022/04/02 09:42:39;;;;;;;0.50;0.50;;;1.80;99.90;;;;;;5023272;28;20402;-74
2022/04/02 09:45:14;;;;;;;0.40;0.30;;;1.90;99.90;;;;;;5022264;28;20824;-74
2022/04/02 09:47:52;;;;;;;0.40;0.20;;;1.90;99.90;;;;;;5022678;28;20403;-74
2022/04/02 09:50:21;;;;;;;0.40;0.40;;;2.00;99.90;;;;;;5039855;28;20940;-72
2022/04/02 09:52:57;;;;;;;0.40;0.20;;;2.10;99.90;;;;;;5022266;28;20487;-73
2022/04/02 09:55:28;;;;;;;0.40;0.20;;;2.10;99.90;;;;;;5021329;28;20490;-75
2022/04/02 09:58:09;;;;;;;0.40;0.20;;;2.10;99.90;;;;;;5020914;28;20485;-74
2022/04/02 10:01:01;;;;;;;0.40;0.20;;;1.90;99.90;;;;;;5024702;28;21071;-73
2022/04/02 10:03:52;;;;;;;0.40;0.30;;;2.10;99.90;;;;;;5014212;28;20408;-76
2022/04/02 10:06:22;;;;;;;0.40;0.20;;;2.00;99.90;;;;;;5022009;28;20405;-75
2022/04/02 10:09:10;;;;;;;0.50;0.50;;;1.90;99.90;;;;;;5021505;28;20415;-76
2022/04/02 10:11:50;;;;;;;2.10;0.60;;;1.90;99.90;;;;;;5021420;28;20434;-78
2022/04/02 10:14:23;;;;;;;0.40;0.20;;;1.80;99.90;;;;;;5021678;28;20404;-76
2022/04/02 10:16:56;;;;;;;0.40;0.30;;;1.80;99.90;;;;;;5014050;28;20395;-78
2022/04/02 10:19:42;;;;;;;0.40;0.20;;;1.80;99.90;;;;;;5015684;28;20396;-76
2022/04/02 10:22:12;;;;;;;0.40;0.20;;;1.70;99.90;;;;;;5017921;28;20389;-76
2022/04/02 10:24:48;;;;;;;0.40;0.20;;;1.90;99.90;;;;;;5019048;28;20415;-76
2022/04/02 10:27:32;;;;;;;0.40;0.20;;;1.90;99.90;;;;;;5019033;28;20395;-76
2022/04/02 10:30:01;;;;;;;1.00;0.90;;;1.90;99.90;;;;;;5022502;28;20409;-78
2022/04/02 10:32:52;;;;;;;0.40;0.20;;;2.10;99.90;;;;;;5036995;28;20399;-76
2022/04/02 10:35:23;;;;;;;0.40;0.20;;;2.20;99.90;;;;;;5021110;28;20453;-77
2022/04/02 10:38:09;;;;;;;0.40;0.20;;;1.90;99.90;;;;;;5027601;28;20477;-77
2022/04/02 10:40:48;;;;;;;0.40;0.20;;;1.80;99.90;;;;;;5018868;28;20454;-77
2022/04/02 10:43:24;;;;;;;0.40;0.20;;;1.70;99.90;;;;;;5016753;28;20487;-77
2022/04/02 10:45:50;;;;;;;0.40;0.20;;;1.90;99.90;;;;;;5020003;28;20430;-77
2022/04/02 10:48:26;;;;;;;0.40;0.40;;;1.80;99.90;;;;;;5021028;28;20440;-78
2022/04/02 10:50:57;;;;;;;0.40;0.20;;;1.90;99.90;;;;;;5020910;28;20431;-77
2022/04/02 10:53:24;;;;;;;0.40;0.20;;;1.90;99.90;;;;;;5017111;28;20391;-77
2022/04/02 10:55:59;;;;;;;0.40;0.20;;;2.00;99.90;;;;;;5017773;28;20414;-78
2022/04/02 10:58:25;;;;;;;0.40;0.20;;;2.10;99.90;;;;;;5018557;28;20406;-77
2022/04/02 11:00:55;;;;;;;0.40;0.20;;;1.80;99.90;;;;;;5020408;28;20395;-77
2022/04/02 11:03:45;;;;;;;0.40;0.20;;;1.90;99.90;;;;;;5017618;28;20495;-77
2022/04/02 11:06:31;;;;;;;0.40;0.20;;;2.10;99.90;;;;;;5023571;28;20906;-77
2022/04/02 11:08:57;;;;;;;0.40;0.20;;;2.10;99.90;;;;;;5019087;28;20408;-77
2022/04/02 11:11:27;;;;;;;0.40;0.20;;;2.00;99.90;;;;;;5023190;28;20418;-79
2022/04/02 11:14:02;;;;;;;0.40;0.20;;;2.10;99.90;;;;;;5015327;28;20439;-77
2022/04/02 11:16:40;;;;;;;0.40;0.20;;;2.20;99.90;;;;;;5014462;28;20416;-78
2022/04/02 11:22:02;;;;;;;0.40;0.20;;;2.00;99.90;;;;;;5017618;28;20747;-77
2022/04/02 11:24:34;;;;;;;0.40;0.20;;;2.10;99.90;;;;;;5016719;28;20393;-79
2022/04/02 11:27:01;;;;;;;0.40;0.20;;;1.90;99.90;;;;;;5018119;28;20497;-76
2022/04/02 11:29:30;;;;;;;0.40;0.20;;;2.00;99.90;;;;;;5022028;28;20439;-76
2022/04/02 11:32:00;;;;;;;0.40;0.20;;;2.00;99.90;;;;;;5018283;28;20492;-76
2022/04/02 11:34:29;;;;;;;0.40;0.20;;;2.00;99.90;;;;;;5017866;28;20387;-76
2022/04/02 11:37:03;;;;;;;0.40;0.20;;;1.90;99.90;;;;;;5014720;28;20450;-76
2022/04/02 11:39:51;;;;;;;0.40;0.20;;;2.10;99.90;;;;;;5017298;28;20887;-77
2022/04/02 11:42:22;;;;;;;0.40;0.20;;;2.10;99.90;;;;;;5018167;28;20444;-76
2022/04/02 11:44:55;;;;;;;0.40;0.20;;;2.00;99.90;;;;;;5016386;28;20411;-78
2022/04/02 11:47:29;;;;;;;0.40;0.20;;;2.30;99.90;;;;;;5019500;28;20434;-76
2022/04/02 11:50:08;;;;;;;0.40;0.30;;;2.40;99.90;;;;;;5017234;28;20423;-76
2022/04/02 11:52:57;;;;;;;0.40;0.20;;;2.50;99.90;;;;;;5014851;28;20971;-77
2022/04/02 11:55:27;;;;;;;0.40;0.40;;;2.30;99.90;;;;;;5024686;28;20407;-77
2022/04/02 11:58:05;;;;;;;0.40;0.20;;;2.10;99.90;;;;;;5018035;28;20407;-77
2022/04/02 12:00:33;;;;;;;0.40;0.20;;;2.30;99.90;;;;;;5019912;28;20403;-76
2022/04/02 12:02:59;;;;;;;0.40;0.20;;;2.30;99.90;;;;;;5018582;28;20422;-75
2022/04/02 12:05:42;;;;;;;0.40;0.22;;;2.20;99.90;;;;;;5020967;28;20394;-76
2022/04/02 12:08:10;;;;;;;0.68;0.60;;;2.20;99.90;;;;;;5021241;28;20408;-77
2022/04/02 12:10:44;;;;;;;0.40;0.20;;;2.30;99.90;;;;;;5019591;28;20431;-76
2022/04/02 12:13:10;;;;;;;0.40;0.20;;;2.20;99.90;;;;;;5040083;28;20406;-77
2022/04/02 12:15:36;;;;;;;0.70;0.60;;;2.30;99.90;;;;;;5021472;28;20435;-76
2022/04/02 12:18:08;;;;;;;0.40;0.20;;;2.40;99.90;;;;;;5019434;28;20402;-80
2022/04/02 12:20:38;;;;;;;0.40;0.20;;;2.60;99.90;;;;;;5023118;28;20422;-78
2022/04/02 12:23:09;;;;;;;0.70;0.60;;;2.30;99.90;;;;;;5018689;28;20395;-79
2022/04/02 12:25:37;;;;;;;0.40;0.20;;;2.50;99.90;;;;;;5018512;28;20385;-77
2022/04/02 12:28:17;;;;;;;0.45;0.43;;;2.50;99.90;;;;;;5021736;28;20391;-77
2022/04/02 12:30:48;;;;;;;0.40;0.30;;;2.50;99.90;;;;;;5023871;28;20412;-77
2022/04/02 12:33:17;;;;;;;0.40;0.20;;;2.30;99.90;;;;;;5015987;28;20463;-77
2022/04/02 12:35:56;;;;;;;0.40;0.20;;;2.30;99.90;;;;;;5020231;28;20466;-79
2022/04/02 12:38:30;;;;;;;0.40;0.30;;;2.30;99.90;;;;;;5049604;28;20395;-78
2022/04/02 12:40:58;;;;;;;0.40;0.20;;;2.10;99.90;;;;;;5018480;28;20459;-78
2022/04/02 12:43:32;;;;;;;0.40;0.20;;;1.80;99.90;;;;;;5015152;28;20398;-76
2022/04/02 12:45:59;;;;;;;0.70;0.70;;;2.10;99.90;;;;;;5017491;28;20480;-77
2022/04/02 12:48:26;;;;;;;0.60;0.60;;;2.10;99.90;;;;;;5022646;28;20396;-77
2022/04/02 12:51:00;;;;;;;0.40;0.20;;;2.30;99.90;;;;;;5017638;28;20917;-77
2022/04/02 12:53:49;;;;;;;0.40;0.20;;;2.50;99.90;;;;;;5021571;28;20395;-78
2022/04/02 12:56:26;;;;;;;1.65;1.55;;;2.50;99.90;;;;;;5022597;28;20423;-79
2022/04/02 12:58:53;;;;;;;0.40;0.20;;;2.40;99.90;;;;;;5050974;28;20503;-79
2022/04/02 13:01:25;;;;;;;0.40;0.20;;;2.30;99.90;;;;;;5019833;28;20455;-78
2022/04/02 13:04:01;;;;;;;0.40;0.20;;;2.40;99.90;;;;;;5018382;28;20392;-77
2022/04/02 13:06:32;;;;;;;0.40;0.20;;;2.40;99.90;;;;;;5023734;28;20760;-78
2022/04/02 13:09:01;;;;;;;0.40;0.30;;;2.30;99.90;;;;;;5018570;28;20392;-78
2022/04/02 13:11:57;;;;;;;0.40;0.20;;;2.20;99.90;;;;;;5017010;28;20420;-78
2022/04/02 13:14:25;;;;;;;0.40;0.20;;;2.20;99.90;;;;;;5023347;28;20539;-78
2022/04/02 13:17:08;;;;;;;0.40;0.20;;;2.30;99.90;;;;;;5022901;28;20489;-77
2022/04/02 13:22:42;;;;;;;0.40;0.20;;;2.10;99.90;;;;;;5022954;28;20380;-80
2022/04/02 13:25:22;;;;;;;0.50;0.50;;;2.20;99.90;;;;;;5029591;28;20879;-78